Time;durP1;ratioP1;P1;durP2;ratioP2;P2;SDS_P1;SDS_P2;PMS_P1;PMS_P2;Temp;Humidity;BMP_temperature;BMP_pressure;BME280_temperature;BME280_humidity;BME280_pressure;Samples;Min_cycle;Max_cycle;Signal;HPM_P1;HPM_P2
2023/05/29 00:01:24;;;;;;;2.88;1.35;;;;;;;;;;4974607;28;20106;-88
2023/05/29 00:03:50;;;;;;;4.40;1.27;;;;;;;;;;4974822;28;20085;-88
2023/05/29 00:06:16;;;;;;;4.05;1.80;;;;;;;;;;4975363;28;20023;-89
2023/05/29 00:08:42;;;;;;;2.95;1.30;;;;;;;;;;4975294;28;20034;-90
2023/05/29 00:11:08;;;;;;;3.20;1.40;;;;;;;;;;4975372;28;20038;-89
2023/05/29 00:13:34;;;;;;;4.22;1.45;;;;;;;;;;4975121;28;20401;-87
2023/05/29 00:16:00;;;;;;;4.30;1.52;;;;;;;;;;4974732;28;20050;-88
2023/05/29 00:18:27;;;;;;;2.92;1.55;;;;;;;;;;4975020;28;20061;-88
2023/05/29 00:20:53;;;;;;;3.40;1.25;;;;;;;;;;4975008;28;20049;-90
2023/05/29 00:23:19;;;;;;;5.32;1.80;;;;;;;;;;4975118;28;20027;-90
2023/05/29 00:25:45;;;;;;;4.05;1.73;;;;;;;;;;4974977;28;20030;-90
2023/05/29 00:28:12;;;;;;;5.07;1.65;;;;;;;;;;4974656;28;20041;-89
2023/05/29 00:30:38;;;;;;;3.60;1.58;;;;;;;;;;4974828;28;20030;-89
2023/05/29 00:33:04;;;;;;;2.80;1.40;;;;;;;;;;4974491;28;20031;-87
2023/05/29 00:35:30;;;;;;;4.60;1.52;;;;;;;;;;4974459;28;20492;-89
2023/05/29 00:37:57;;;;;;;5.07;1.40;;;22.50;57.80;;;;;;4974526;28;20045;-89
2023/05/29 00:40:23;;;;;;;3.20;1.33;;;;;;;;;;4974307;28;20490;-88
2023/05/29 00:42:50;;;;;;;3.25;1.20;;;;;;;;;;4974504;28;20106;-88
2023/05/29 00:45:15;;;;;;;2.80;1.45;;;;;;;;;;4974426;28;20026;-89
2023/05/29 00:47:45;;;;;;;3.85;1.80;;;22.40;52.60;;;;;;4974444;28;20027;-89
2023/05/29 00:50:13;;;;;;;3.43;1.10;;;;;;;;;;4974226;28;20027;-87
2023/05/29 00:52:41;;;;;;;2.60;1.38;;;22.40;58.00;;;;;;4974287;28;20030;-88
2023/05/29 00:55:08;;;;;;;3.63;1.40;;;22.20;55.80;;;;;;4974134;28;20583;-88
2023/05/29 00:57:35;;;;;;;2.70;1.20;;;22.30;56.50;;;;;;4974090;28;20019;-87
2023/05/29 01:00:05;;;;;;;4.35;1.50;;;22.30;58.10;;;;;;4973990;28;20031;-87
2023/05/29 01:02:31;;;;;;;4.78;1.50;;;;;;;;;;4974123;28;20552;-89
2023/05/29 01:04:57;;;;;;;2.97;1.10;;;;;;;;;;4973927;28;20425;-88
2023/05/29 01:07:23;;;;;;;2.78;1.10;;;;;;;;;;4973886;28;20026;-88
2023/05/29 01:09:49;;;;;;;3.05;1.30;;;;;;;;;;4974150;28;20037;-90
2023/05/29 01:12:43;;;;;;;3.03;1.25;;;22.30;52.70;;;;;;4974372;28;20027;-89
2023/05/29 01:15:40;;;;;;;4.68;1.48;;;22.20;52.80;;;;;;4974297;28;20034;-89
2023/05/29 01:18:23;;;;;;;2.38;1.10;;;22.20;58.00;;;;;;4974184;28;20035;-89
2023/05/29 01:21:13;;;;;;;2.67;1.10;;;22.20;58.50;;;;;;4958727;28;20382;-77
2023/05/29 01:24:02;;;;;;;1.98;1.00;;;22.20;52.80;;;;;;4963092;28;20069;-77
2023/05/29 01:27:04;;;;;;;3.10;1.10;;;21.90;58.70;;;;;;4973855;28;20033;-77
2023/05/29 01:29:33;;;;;;;3.88;1.30;;;22.20;58.00;;;;;;4951824;29;20038;-77
2023/05/29 01:32:01;;;;;;;3.03;1.02;;;;;;;;;;4969680;28;20039;-77
2023/05/29 01:34:27;;;;;;;3.47;1.23;;;;;;;;;;4973449;28;20123;-77
2023/05/29 01:36:54;;;;;;;2.60;1.33;;;;;;;;;;4973452;28;20118;-77
2023/05/29 01:39:21;;;;;;;2.58;1.20;;;22.00;54.20;;;;;;4973353;28;20027;-77
2023/05/29 01:41:47;;;;;;;3.33;1.25;;;;;;;;;;4973393;28;20053;-77
2023/05/29 01:44:14;;;;;;;3.63;1.10;;;22.20;57.10;;;;;;4973198;28;20023;-77
2023/05/29 01:46:41;;;;;;;3.03;1.52;;;22.00;57.50;;;;;;4973279;28;20034;-77
2023/05/29 01:49:09;;;;;;;2.65;1.25;;;22.00;57.70;;;;;;4973290;28;20015;-77
2023/05/29 01:51:35;;;;;;;4.00;1.30;;;;;;;;;;4973393;28;20105;-77
2023/05/29 01:54:01;;;;;;;4.30;1.33;;;;;;;;;;4973116;28;20023;-77
2023/05/29 01:56:28;;;;;;;3.75;1.55;;;22.00;58.40;;;;;;4955823;28;20501;-76
2023/05/29 01:58:56;;;;;;;2.30;1.17;;;22.00;57.90;;;;;;4973577;28;20154;-77
2023/05/29 02:01:23;;;;;;;2.72;1.15;;;;;;;;;;4973209;28;20054;-77
2023/05/29 02:03:50;;;;;;;4.82;1.27;;;;;;;;;;4972910;28;20051;-77
2023/05/29 02:06:17;;;;;;;3.28;1.40;;;;;;;;;;4973047;28;20157;-77
2023/05/29 02:08:43;;;;;;;2.25;1.30;;;;;;;;;;4973109;28;20029;-77
2023/05/29 02:11:13;;;;;;;2.92;1.00;;;;;;;;;;4973410;28;20429;-77
2023/05/29 02:13:39;;;;;;;2.53;1.20;;;;;;;;;;4973380;28;20115;-77
2023/05/29 02:16:06;;;;;;;3.60;1.20;;;;;;;;;;4973323;28;20088;-76
2023/05/29 02:18:34;;;;;;;3.03;1.17;;;;;;;;;;4973175;28;20018;-76
2023/05/29 02:21:02;;;;;;;3.08;1.30;;;;;;;;;;4973236;28;20027;-77
2023/05/29 02:23:28;;;;;;;3.88;1.42;;;;;;;;;;4973389;28;20042;-77
2023/05/29 02:25:54;;;;;;;1.67;1.00;;;;;;;;;;4976706;28;20482;-76
2023/05/29 02:28:20;;;;;;;3.17;1.48;;;;;;;;;;4976673;28;20030;-77
2023/05/29 02:30:46;;;;;;;4.72;1.40;;;;;;;;;;4976706;28;20042;-77
2023/05/29 02:33:13;;;;;;;2.60;1.17;;;;;;;;;;4976873;28;20023;-77
2023/05/29 02:35:39;;;;;;;2.10;1.00;;;;;;;;;;4976707;28;20490;-77
2023/05/29 02:38:06;;;;;;;3.20;1.30;;;;;;;;;;4976313;28;20031;-77
2023/05/29 02:40:32;;;;;;;2.22;0.88;;;;;;;;;;4976583;28;20370;-77
2023/05/29 02:42:58;;;;;;;3.15;1.20;;;;;;;;;;4976686;28;20027;-76
2023/05/29 02:45:25;;;;;;;2.80;1.15;;;;;;;;;;4976450;28;20525;-77
2023/05/29 02:47:51;;;;;;;3.08;1.02;;;;;;;;;;4976251;28;20454;-77
2023/05/29 02:50:18;;;;;;;4.80;1.20;;;;;;;;;;4976528;28;20058;-77
2023/05/29 02:52:44;;;;;;;3.80;1.40;;;;;;;;;;4976456;28;20030;-77
2023/05/29 02:55:10;;;;;;;4.03;1.25;;;;;;;;;;4976145;28;20049;-77
2023/05/29 02:57:36;;;;;;;3.20;1.23;;;;;;;;;;4958722;28;20030;-77
2023/05/29 03:00:06;;;;;;;2.38;1.00;;;;;;;;;;4976078;28;20027;-77
2023/05/29 03:02:32;;;;;;;3.37;1.10;;;;;;;;;;4975874;28;20027;-77
2023/05/29 03:04:58;;;;;;;4.63;1.27;;;;;;;;;;4975940;28;20082;-77
2023/05/29 03:07:24;;;;;;;2.55;1.30;;;;;;;;;;4976165;28;20031;-77
2023/05/29 03:09:50;;;;;;;5.78;1.40;;;;;;;;;;4975993;28;20039;-77
2023/05/29 03:12:16;;;;;;;2.80;1.00;;;;;;;;;;4975886;28;20034;-77
2023/05/29 03:14:42;;;;;;;2.38;1.00;;;;;;;;;;4975983;28;20126;-77
2023/05/29 03:17:08;;;;;;;4.30;1.10;;;;;;;;;;4975823;28;20035;-77
2023/05/29 03:19:34;;;;;;;3.40;1.20;;;;;;;;;;4975643;28;20038;-77
2023/05/29 03:22:00;;;;;;;2.05;1.25;;;;;;;;;;4975605;28;20027;-77
2023/05/29 03:24:27;;;;;;;3.50;1.10;;;;;;;;;;4975930;28;20027;-77
2023/05/29 03:26:53;;;;;;;3.35;1.20;;;;;;;;;;4975999;28;20030;-77
2023/05/29 03:29:20;;;;;;;3.28;1.05;;;;;;;;;;4975633;28;20027;-77
2023/05/29 03:31:46;;;;;;;2.38;1.10;;;;;;;;;;4975676;28;20109;-77
2023/05/29 03:34:13;;;;;;;4.30;1.30;;;;;;;;;;4975688;28;20030;-77
2023/05/29 03:36:39;;;;;;;1.80;0.90;;;;;;;;;;4974429;28;20046;-77
2023/05/29 03:39:06;;;;;;;3.30;1.08;;;;;;;;;;4975287;28;20470;-77
2023/05/29 03:41:32;;;;;;;2.70;1.00;;;;;;;;;;4975477;28;20026;-77
2023/05/29 03:43:59;;;;;;;3.55;1.17;;;;;;;;;;4975440;28;20027;-77
2023/05/29 03:46:27;;;;;;;3.13;1.15;;;;;;;;;;4975533;28;20054;-77
2023/05/29 03:48:53;;;;;;;4.57;1.63;;;;;;;;;;4975289;28;20033;-77
2023/05/29 03:51:19;;;;;;;2.50;1.08;;;;;;;;;;4975362;28;20026;-76
2023/05/29 03:53:46;;;;;;;4.07;1.33;;;;;;;;;;4975258;28;20060;-77
2023/05/29 03:56:12;;;;;;;3.78;1.13;;;;;;;;;;4975280;28;20460;-77
2023/05/29 03:58:39;;;;;;;4.25;1.42;;;;;;;;;;4974978;28;20055;-77
2023/05/29 04:10:24;;;;;;;2.03;0.93;;;;;;;;;;4975264;28;20127;-84
2023/05/29 04:12:51;;;;;;;2.60;0.95;;;21.10;58.70;;;;;;4974861;28;20066;-84
2023/05/29 04:15:17;;;;;;;2.33;0.88;;;;;;;;;;4974730;28;20040;-83
2023/05/29 04:17:43;;;;;;;2.78;1.30;;;;;;;;;;4974854;28;20030;-84
2023/05/29 04:20:09;;;;;;;2.88;0.90;;;;;;;;;;4974804;28;20477;-83
2023/05/29 04:22:36;;;;;;;3.42;1.10;;;21.10;59.20;;;;;;4974572;28;20037;-84
2023/05/29 04:25:03;;;;;;;3.47;1.17;;;;;;;;;;4974554;28;20031;-83
2023/05/29 04:27:29;;;;;;;2.30;1.00;;;;;;;;;;4974519;28;20498;-83
2023/05/29 04:29:56;;;;;;;3.22;1.15;;;;;;;;;;4974478;28;20054;-84
2023/05/29 04:32:22;;;;;;;2.65;1.55;;;;;;;;;;4974503;28;20029;-84
2023/05/29 04:34:48;;;;;;;2.83;1.05;;;;;;;;;;4974316;28;20432;-84
2023/05/29 04:37:14;;;;;;;2.28;1.05;;;20.90;59.20;;;;;;4974518;28;20101;-84
2023/05/29 04:39:40;;;;;;;2.58;1.20;;;;;;;;;;4974566;28;20089;-84
2023/05/29 04:42:06;;;;;;;4.75;1.25;;;;;;;;;;4974242;28;20022;-83
2023/05/29 04:44:32;;;;;;;4.35;1.10;;;;;;;;;;4974185;28;20117;-83
2023/05/29 04:47:02;;;;;;;4.03;0.93;;;;;;;;;;4974299;28;20073;-83
2023/05/29 04:49:28;;;;;;;2.42;0.98;;;;;;;;;;4974168;28;20027;-83
2023/05/29 04:51:54;;;;;;;4.60;1.25;;;;;;;;;;4973995;28;20027;-84
2023/05/29 04:54:22;;;;;;;3.30;1.05;;;20.90;59.30;;;;;;4974330;28;20375;-84
2023/05/29 04:56:49;;;;;;;3.95;1.23;;;;;;;;;;4974367;28;20400;-84
2023/05/29 04:59:15;;;;;;;3.60;1.10;;;;;;;;;;4974186;28;20449;-84
2023/05/29 05:01:44;;;;;;;3.45;1.23;;;;;;;;;;4973878;28;20062;-83
2023/05/29 05:04:11;;;;;;;3.05;1.33;;;;;;;;;;4974175;28;20041;-84
2023/05/29 05:06:38;;;;;;;2.47;0.88;;;;;;;;;;4973964;28;20061;-84
2023/05/29 05:09:05;;;;;;;4.93;1.30;;;;;;;;;;4973951;28;20027;-84
2023/05/29 05:11:31;;;;;;;3.65;1.00;;;;;;;;;;4973870;28;20110;-84
2023/05/29 05:13:58;;;;;;;3.22;1.00;;;;;;;;;;4973915;28;20447;-84
2023/05/29 05:16:24;;;;;;;3.20;1.02;;;;;;;;;;4973670;28;20078;-85
2023/05/29 05:18:51;;;;;;;2.63;0.88;;;;;;;;;;4973554;28;20039;-83
2023/05/29 05:21:16;;;;;;;3.67;1.10;;;;;;;;;;4973604;28;20045;-83
2023/05/29 05:23:42;;;;;;;3.47;1.27;;;;;;;;;;4973529;28;20465;-84
2023/05/29 05:26:08;;;;;;;5.03;1.17;;;;;;;;;;4972638;28;20033;-83
2023/05/29 05:28:35;;;;;;;5.13;1.23;;;;;;;;;;4973312;28;20034;-83
2023/05/29 05:31:01;;;;;;;4.05;0.77;;;;;;;;;;4973427;28;20078;-84
2023/05/29 05:33:27;;;;;;;2.70;1.00;;;;;;;;;;4973568;28;20019;-84
2023/05/29 05:35:53;;;;;;;3.25;1.08;;;;;;;;;;4973336;28;20043;-84
2023/05/29 05:38:20;;;;;;;3.88;1.17;;;;;;;;;;4973387;28;20041;-80
2023/05/29 05:40:46;;;;;;;3.40;1.00;;;;;;;;;;4973215;28;20519;-82
2023/05/29 05:43:12;;;;;;;5.03;1.08;;;;;;;;;;4973411;28;20027;-82
2023/05/29 05:45:41;;;;;;;4.15;1.17;;;;;;;;;;4973287;28;20034;-82
2023/05/29 05:48:08;;;;;;;2.33;0.98;;;;;;;;;;4973345;28;20109;-82
2023/05/29 05:50:34;;;;;;;2.53;0.80;;;;;;;;;;4973407;28;20046;-82
2023/05/29 05:53:04;;;;;;;3.13;0.95;;;;;;;;;;4973219;28;20503;-82
2023/05/29 05:55:31;;;;;;;3.20;0.88;;;;;;;;;;4973198;28;20057;-82
2023/05/29 05:57:57;;;;;;;3.25;1.15;;;;;;;;;;4973353;28;20030;-82
2023/05/29 06:00:24;;;;;;;3.13;1.13;;;;;;;;;;4976995;28;20066;-82
2023/05/29 06:02:51;;;;;;;4.22;1.05;;;;;;;;;;4976790;28;20061;-82
2023/05/29 06:05:17;;;;;;;3.85;1.38;;;;;;;;;;4977230;28;20105;-82
2023/05/29 06:07:45;;;;;;;6.90;1.63;;;;;;;;;;4977042;28;20552;-82
2023/05/29 06:10:11;;;;;;;4.60;1.00;;;;;;;;;;4977122;28;20148;-77
2023/05/29 06:12:38;;;;;;;4.55;1.40;;;;;;;;;;4985818;28;20202;-86
2023/05/29 06:15:04;;;;;;;4.25;1.17;;;;;;;;;;4977057;28;20113;-79
2023/05/29 06:17:31;;;;;;;2.75;0.90;;;;;;;;;;4977067;28;20027;-79
2023/05/29 06:19:57;;;;;;;3.05;1.38;;;;;;;;;;4976755;28;20101;-79
2023/05/29 06:22:24;;;;;;;4.55;1.30;;;;;;;;;;4976786;28;20469;-79
2023/05/29 06:24:50;;;;;;;5.80;1.17;;;;;;;;;;4976646;28;20477;-80
2023/05/29 06:27:17;;;;;;;5.28;1.17;;;;;;;;;;4976715;28;20042;-79
2023/05/29 06:29:44;;;;;;;3.67;1.02;;;;;;;;;;4976966;28;20031;-81
2023/05/29 06:32:10;;;;;;;4.20;1.17;;;;;;;;;;4976324;28;20043;-80
2023/05/29 06:34:37;;;;;;;1.92;1.08;;;;;;;;;;4976563;28;20049;-79
2023/05/29 06:37:03;;;;;;;4.28;1.55;;;;;;;;;;4976459;28;20050;-80
2023/05/29 06:39:29;;;;;;;6.03;1.48;;;;;;;;;;4976478;28;20031;-80
2023/05/29 06:41:55;;;;;;;5.85;1.98;;;;;;;;;;4976412;28;20031;-79
2023/05/29 06:44:21;;;;;;;3.80;1.20;;;;;;;;;;4976392;28;20034;-80
2023/05/29 06:46:47;;;;;;;3.95;1.20;;;;;;;;;;4976382;28;20037;-80
2023/05/29 06:49:13;;;;;;;8.98;1.50;;;;;;;;;;4976224;28;20039;-78
2023/05/29 06:51:39;;;;;;;7.00;1.17;;;;;;;;;;4976216;28;20070;-79
2023/05/29 06:54:05;;;;;;;2.67;1.15;;;;;;;;;;4976368;28;20027;-79
2023/05/29 06:56:31;;;;;;;7.00;1.50;;;;;;;;;;4976444;28;20053;-79
2023/05/29 06:58:57;;;;;;;5.82;1.70;;;;;;;;;;4976079;28;20505;-79
2023/05/29 07:01:23;;;;;;;5.93;1.27;;;;;;;;;;4975835;28;20081;-79
2023/05/29 07:03:52;;;;;;;6.53;2.15;;;20.60;59.60;;;;;;4976107;28;20027;-79
2023/05/29 07:06:19;;;;;;;3.17;1.15;;;;;;;;;;4976399;28;20042;-78
2023/05/29 07:08:45;;;;;;;6.20;1.20;;;;;;;;;;4975983;28;20055;-77
2023/05/29 07:11:11;;;;;;;5.15;1.55;;;;;;;;;;4975896;28;20034;-76
2023/05/29 07:13:38;;;;;;;4.93;1.30;;;;;;;;;;4975873;28;20026;-79
2023/05/29 07:16:04;;;;;;;5.53;1.50;;;;;;;;;;4976000;28;20038;-76
2023/05/29 07:18:31;;;;;;;9.50;1.60;;;;;;;;;;4975681;28;20030;-77
2023/05/29 07:20:57;;;;;;;7.43;2.03;;;;;;;;;;4975863;28;20034;-78
2023/05/29 07:23:24;;;;;;;6.50;1.98;;;20.60;59.60;;;;;;4975915;28;20512;-77
2023/05/29 07:25:50;;;;;;;6.70;1.98;;;;;;;;;;4975842;28;20034;-78
2023/05/29 07:28:17;;;;;;;6.30;1.92;;;;;;;;;;4975491;28;20023;-81
2023/05/29 07:30:43;;;;;;;7.32;2.63;;;;;;;;;;4975852;28;20035;-82
2023/05/29 07:33:10;;;;;;;7.18;2.10;;;;;;;;;;4975467;28;20034;-80
2023/05/29 07:35:36;;;;;;;5.70;2.40;;;;;;;;;;4975346;28;20034;-80
2023/05/29 07:38:03;;;;;;;7.82;1.90;;;;;;;;;;4975610;28;20027;-79
2023/05/29 07:40:29;;;;;;;8.35;2.13;;;;;;;;;;4975436;28;20038;-80
2023/05/29 07:42:56;;;;;;;6.97;2.08;;;;;;;;;;4975636;28;20038;-79
2023/05/29 07:45:22;;;;;;;7.13;1.80;;;;;;;;;;4975499;28;20119;-80
2023/05/29 07:47:48;;;;;;;5.93;1.95;;;;;;;;;;4975278;28;20035;-81
2023/05/29 07:50:15;;;;;;;7.85;2.35;;;;;;;;;;4975501;28;20027;-84
2023/05/29 07:52:43;;;;;;;7.00;2.20;;;20.70;60.40;;;;;;4975129;28;20681;-73
2023/05/29 07:55:10;;;;;;;8.13;2.20;;;;;;;;;;4975389;28;20105;-76
2023/05/29 07:57:37;;;;;;;4.35;2.13;;;;;;;;;;4975188;28;20042;-82
2023/05/29 08:00:08;;;;;;;4.97;1.83;;;;;;;;;;4975344;28;20027;-78
2023/05/29 08:02:36;;;;;;;7.57;2.00;;;20.80;57.40;;;;;;4974911;28;20081;-79
2023/05/29 08:05:03;;;;;;;6.10;1.48;;;20.80;60.70;;;;;;4975208;28;20042;-79
2023/05/29 08:07:30;;;;;;;8.10;2.22;;;;;;;;;;4975098;28;20370;-82
2023/05/29 08:09:56;;;;;;;6.78;1.88;;;;;;;;;;4975161;28;20128;-82
2023/05/29 08:12:23;;;;;;;4.50;1.70;;;;;;;;;;4974900;28;20031;-82
2023/05/29 08:14:49;;;;;;;7.68;1.88;;;;;;;;;;4974930;28;20045;-82
2023/05/29 08:17:16;;;;;;;5.45;1.55;;;;;;;;;;4974780;28;20033;-82
2023/05/29 08:19:43;;;;;;;4.72;1.48;;;20.80;55.10;;;;;;4974875;28;20031;-81
2023/05/29 08:22:13;;;;;;;5.70;2.00;;;20.80;60.40;;;;;;4974059;28;20027;-82
2023/05/29 08:24:40;;;;;;;5.45;1.40;;;;;;;;;;4974751;28;20037;-77
2023/05/29 08:27:06;;;;;;;5.18;1.75;;;;;;;;;;4974419;28;20465;-78
2023/05/29 08:29:33;;;;;;;5.70;1.75;;;;;;;;;;4974352;28;20051;-76
2023/05/29 08:31:59;;;;;;;6.53;1.70;;;;;;;;;;4974300;28;20048;-77
2023/05/29 08:34:25;;;;;;;4.72;1.60;;;;;;;;;;4974464;28;20035;-83
2023/05/29 08:36:54;;;;;;;2.90;1.45;;;;;;;;;;4974592;28;20033;-77
2023/05/29 08:39:21;;;;;;;7.07;1.83;;;;;;;;;;4974187;28;20121;-81
2023/05/29 08:42:05;;;;;;;3.92;1.50;;;20.90;55.00;;;;;;4974101;28;20045;-77
2023/05/29 08:44:32;;;;;;;4.60;1.50;;;;;;;;;;4974420;28;20023;-77
2023/05/29 08:47:03;;;;;;;3.63;1.13;;;21.00;60.60;;;;;;4974046;28;20486;-76
2023/05/29 08:49:40;;;;;;;4.93;1.33;;;21.00;60.60;;;;;;4974354;28;20019;-76
2023/05/29 08:52:15;;;;;;;5.75;1.65;;;21.10;55.30;;;;;;4975151;28;20033;-78
2023/05/29 08:54:42;;;;;;;4.75;1.50;;;;;;;;;;4975436;28;20035;-77
2023/05/29 08:57:08;;;;;;;3.67;1.60;;;;;;;;;;4973931;28;20505;-77
2023/05/29 08:59:36;;;;;;;7.28;1.38;;;21.20;61.00;;;;;;4973858;28;20035;-80
2023/05/29 09:02:02;;;;;;;7.15;2.00;;;;;;;;;;4973510;28;20042;-80
2023/05/29 09:04:31;;;;;;;5.40;1.65;;;21.20;57.90;;;;;;4973866;28;20521;-80
2023/05/29 09:06:58;;;;;;;7.25;1.80;;;21.30;59.00;;;;;;4973697;28;20082;-83
2023/05/29 09:09:26;;;;;;;6.32;2.22;;;;;;;;;;4973709;28;20078;-79
2023/05/29 09:11:53;;;;;;;4.25;1.50;;;;;;;;;;4973644;28;20031;-76
2023/05/29 09:14:44;;;;;;;9.65;1.67;;;21.50;55.20;;;;;;4973648;28;20030;-77
2023/05/29 09:17:11;;;;;;;4.05;1.48;;;21.50;60.50;;;;;;4973634;28;20437;-80
2023/05/29 09:19:40;;;;;;;4.07;1.52;;;21.50;60.70;;;;;;4973597;28;20022;-80
2023/05/29 09:22:16;;;;;;;2.15;1.05;;;21.60;54.70;;;;;;4973901;28;20027;-84
2023/05/29 09:24:46;;;;;;;3.53;1.35;;;21.70;59.40;;;;;;4973957;28;20421;-80
2023/05/29 09:27:12;;;;;;;7.05;1.65;;;;;;;;;;4973608;28;20027;-83
2023/05/29 09:29:39;;;;;;;3.83;1.33;;;21.90;57.80;;;;;;4973429;28;20459;-83
2023/05/29 09:32:16;;;;;;;3.28;1.20;;;21.90;54.30;;;;;;4973568;28;20029;-84
2023/05/29 09:34:43;;;;;;;5.22;1.30;;;;;;;;;;4972496;28;20158;-83
2023/05/29 09:37:10;;;;;;;5.28;1.80;;;22.10;56.30;;;;;;4973485;28;20087;-83
2023/05/29 09:39:43;;;;;;;7.32;1.85;;;22.10;53.50;;;;;;4973523;28;20027;-83
2023/05/29 09:42:12;;;;;;;5.57;1.75;;;22.20;52.80;;;;;;4973403;28;20133;-83
2023/05/29 09:44:38;;;;;;;5.50;1.60;;;;;;;;;;4973310;28;20037;-83
2023/05/29 09:47:04;;;;;;;4.18;1.50;;;;;;;;;;4973241;28;20027;-83
2023/05/29 09:49:31;;;;;;;5.03;1.40;;;22.40;58.00;;;;;;4973609;28;20105;-83
2023/05/29 09:51:59;;;;;;;3.30;1.45;;;22.40;56.40;;;;;;4973235;28;20110;-84
2023/05/29 09:54:30;;;;;;;4.70;1.33;;;22.40;58.00;;;;;;4973197;28;20110;-84
2023/05/29 09:56:58;;;;;;;5.35;1.17;;;22.40;57.80;;;;;;4955795;28;20031;-84
2023/05/29 09:59:24;;;;;;;5.13;1.20;;;22.10;57.10;;;;;;4973084;28;20050;-84
2023/05/29 10:02:11;;;;;;;3.97;1.48;;;22.50;57.50;;;;;;4972885;28;20524;-83
2023/05/29 10:04:38;;;;;;;4.78;1.75;;;;;;;;;;4973007;28;20101;-83
2023/05/29 10:07:28;;;;;;;5.10;1.17;;;22.70;44.70;;;;;;4973345;28;20089;-84
2023/05/29 10:10:01;;;;;;;3.42;1.50;;;22.70;56.30;;;;;;4970189;28;20039;-83
2023/05/29 10:12:28;;;;;;;5.20;1.30;;;;;;;;;;4973100;28;20086;-81
2023/05/29 10:14:59;;;;;;;3.83;1.63;;;22.80;56.80;;;;;;4972932;28;20038;-85
2023/05/29 10:17:28;;;;;;;6.15;1.35;;;22.90;56.40;;;;;;4973165;28;20026;-88
2023/05/29 10:19:56;;;;;;;5.60;1.58;;;22.90;56.10;;;;;;4973227;28;20109;-79
2023/05/29 10:22:26;;;;;;;4.35;1.35;;;23.00;56.80;;;;;;4973077;28;20015;-78
2023/05/29 10:24:52;;;;;;;5.55;1.42;;;23.00;54.50;;;;;;4972917;28;20106;-77
2023/05/29 10:27:19;;;;;;;4.95;1.52;;;;;;;;;;4955572;28;20019;-79
2023/05/29 10:29:45;;;;;;;4.32;1.45;;;;;;;;;;4972800;28;20073;-79
2023/05/29 10:32:43;;;;;;;6.53;1.85;;;23.20;50.60;;;;;;4972809;28;20485;-78
2023/05/29 10:35:20;;;;;;;6.72;1.70;;;23.30;56.50;;;;;;4972800;28;20130;-79
2023/05/29 10:37:46;;;;;;;7.05;1.58;;;;;;;;;;4972921;28;20546;-79
2023/05/29 10:40:12;;;;;;;5.53;1.45;;;;;;;;;;4973107;28;20062;-79
2023/05/29 10:42:58;;;;;;;4.63;1.23;;;23.50;51.40;;;;;;4972972;28;20031;-79
2023/05/29 10:45:32;;;;;;;4.13;1.23;;;23.60;50.80;;;;;;4974531;28;20501;-79
2023/05/29 10:48:06;;;;;;;4.90;1.55;;;23.60;51.00;;;;;;4976606;28;20469;-79
2023/05/29 10:50:45;;;;;;;3.10;1.33;;;23.60;50.90;;;;;;4976413;28;20481;-79
2023/05/29 10:53:15;;;;;;;4.60;1.63;;;23.60;53.70;;;;;;4976393;28;20504;-80
2023/05/29 10:55:41;;;;;;;5.07;1.42;;;23.60;52.90;;;;;;4976888;28;20077;-82
2023/05/29 10:58:08;;;;;;;5.45;1.40;;;23.70;53.60;;;;;;4976208;28;20026;-82
2023/05/29 11:00:34;;;;;;;4.05;1.63;;;;;;;;;;4976094;28;20031;-80
2023/05/29 11:03:03;;;;;;;5.32;1.70;;;23.80;49.60;;;;;;4975904;28;20456;-80
2023/05/29 11:05:29;;;;;;;5.63;1.40;;;;;;;;;;4976187;28;20074;-80
2023/05/29 11:08:02;;;;;;;3.35;1.38;;;23.90;55.70;;;;;;4976118;28;20038;-81
2023/05/29 11:10:52;;;;;;;3.50;1.38;;;24.00;49.90;;;;;;4976009;28;20027;-81
2023/05/29 11:13:31;;;;;;;;;;;24.00;50.80;;;;;;4976308;28;20035;-80
2023/05/29 11:16:14;;;;;;;4.35;1.40;;;24.20;48.50;;;;;;4976124;28;19913;-81
2023/05/29 11:18:46;;;;;;;6.63;1.77;;;24.30;49.80;;;;;;4976074;28;20027;-81
2023/05/29 11:21:29;;;;;;;4.80;1.27;;;24.20;49.10;;;;;;4975716;28;20113;-81
2023/05/29 11:23:58;;;;;;;5.10;1.55;;;24.30;47.50;;;;;;4975713;28;20035;-81
2023/05/29 11:26:29;;;;;;;6.15;1.70;;;24.40;54.70;;;;;;4975682;28;20023;-81
2023/05/29 11:28:58;;;;;;;6.35;2.00;;;24.40;54.40;;;;;;4974907;28;20551;-80
2023/05/29 11:31:24;;;;;;;8.20;1.90;;;24.50;54.20;;;;;;4975348;28;20138;-80
2023/05/29 11:33:50;;;;;;;6.13;1.50;;;24.50;53.10;;;;;;4975463;28;20038;-80
2023/05/29 11:36:21;;;;;;;4.82;1.27;;;24.60;55.20;;;;;;4975469;28;20442;-80
2023/05/29 11:38:46;;;;;;;;;;;24.60;54.20;;;;;;4975903;28;20035;-81
2023/05/29 11:41:12;;;;;;;4.50;1.50;;;;;;;;;;4975445;28;19912;-80
2023/05/29 11:43:38;;;;;;;4.60;1.83;;;;;;;;;;4975504;28;20034;-80
2023/05/29 11:46:20;;;;;;;6.85;1.83;;;24.90;49.90;;;;;;4975414;28;20035;-80
2023/05/29 11:48:46;;;;;;;4.10;1.15;;;24.80;54.80;;;;;;4975269;28;20033;-81
2023/05/29 11:51:13;;;;;;;4.95;1.73;;;;;;;;;;4975310;28;20354;-80
2023/05/29 11:53:43;;;;;;;4.50;1.77;;;24.90;48.80;;;;;;4975187;28;20034;-80
2023/05/29 11:56:12;;;;;;;4.38;1.75;;;24.80;47.40;;;;;;4974445;28;20434;-80
2023/05/29 11:58:39;;;;;;;7.47;1.60;;;24.90;52.20;;;;;;4975134;28;20018;-81
2023/05/29 12:01:05;;;;;;;5.40;1.52;;;;;;;;;;4974945;28;20031;-80
2023/05/29 12:03:41;;;;;;;5.38;1.67;;;24.80;54.50;;;;;;4974889;28;20513;-80
2023/05/29 12:06:07;;;;;;;9.52;2.10;;;;;;;;;;4974994;28;20030;-80
2023/05/29 12:08:34;;;;;;;6.53;1.98;;;;;;;;;;4974839;28;20034;-80
2023/05/29 12:11:00;;;;;;;4.82;1.63;;;;;;;;;;4974970;28;20026;-80
2023/05/29 12:13:26;;;;;;;4.13;1.52;;;;;;;;;;4974662;28;20026;-80
2023/05/29 12:15:55;;;;;;;3.88;1.48;;;25.30;53.40;;;;;;4974860;28;20038;-81
2023/05/29 12:18:21;;;;;;;10.32;2.35;;;;;;;;;;4974697;28;20037;-81
2023/05/29 12:20:47;;;;;;;5.68;1.67;;;;;;;;;;4974687;28;20046;-81
2023/05/29 12:23:13;;;;;;;5.32;1.70;;;;;;;;;;4974549;28;20033;-81
2023/05/29 12:25:39;;;;;;;4.68;1.58;;;;;;;;;;4974573;28;20031;-81
2023/05/29 12:28:06;;;;;;;3.42;1.33;;;;;;;;;;4974582;28;20432;-81
2023/05/29 12:30:32;;;;;;;7.55;1.65;;;;;;;;;;4974413;28;20073;-81
2023/05/29 12:32:59;;;;;;;5.35;1.75;;;;;;;;;;4974387;28;20031;-82
2023/05/29 12:35:28;;;;;;;4.40;1.45;;;25.60;51.90;;;;;;4974584;28;20633;-82
2023/05/29 12:38:01;;;;;;;5.47;1.67;;;25.70;46.90;;;;;;4974568;28;20026;-78
2023/05/29 12:40:29;;;;;;;7.07;2.53;;;25.70;52.20;;;;;;4974770;28;20381;-80
2023/05/29 12:43:09;;;;;;;3.90;1.77;;;25.70;46.80;;;;;;4974190;28;20401;-77
2023/05/29 12:45:35;;;;;;;7.47;2.00;;;;;;;;;;4974067;28;20035;-78
2023/05/29 12:48:05;;;;;;;6.53;2.50;;;25.80;51.90;;;;;;4974024;28;20027;-75
2023/05/29 12:50:33;;;;;;;10.52;2.47;;;25.80;52.00;;;;;;4974149;28;20101;-83
2023/05/29 12:53:01;;;;;;;10.40;2.28;;;25.80;51.20;;;;;;4974325;28;20177;-82
2023/05/29 12:55:38;;;;;;;8.35;2.20;;;25.80;52.30;;;;;;4973992;28;20042;-82
2023/05/29 12:58:04;;;;;;;5.55;1.88;;;;;;;;;;4974195;28;20030;-81
2023/05/29 13:00:30;;;;;;;10.23;2.58;;;;;;;;;;4974032;28;20027;-82
2023/05/29 13:02:58;;;;;;;6.40;1.90;;;;;;;;;;4973771;28;20514;-80
2023/05/29 13:05:24;;;;;;;6.70;2.35;;;;;;;;;;4973760;28;20035;-78
2023/05/29 13:07:50;;;;;;;7.63;2.05;;;;;;;;;;4973541;28;20027;-77
2023/05/29 13:10:17;;;;;;;9.75;2.65;;;;;;;;;;4973815;28;20054;-80
2023/05/29 13:12:43;;;;;;;8.23;2.42;;;;;;;;;;4973774;28;20023;-80
2023/05/29 13:15:11;;;;;;;11.02;2.42;;;25.60;51.30;;;;;;4973519;28;20121;-81
2023/05/29 13:17:37;;;;;;;8.25;2.55;;;;;;;;;;4973899;28;20023;-80
2023/05/29 13:20:07;;;;;;;5.95;2.53;;;;;;;;;;4973676;28;20070;-81
2023/05/29 13:22:33;;;;;;;8.57;2.08;;;;;;;;;;4973671;28;20025;-81
2023/05/29 13:24:59;;;;;;;7.45;2.35;;;;;;;;;;4973726;28;20058;-80
2023/05/29 13:27:26;;;;;;;5.75;2.40;;;;;;;;;;4973900;28;20031;-81
2023/05/29 13:29:52;;;;;;;6.55;2.40;;;;;;;;;;4973717;28;20027;-81
2023/05/29 13:32:18;;;;;;;7.82;2.20;;;;;;;;;;4973613;28;20053;-80
2023/05/29 13:34:44;;;;;;;10.43;2.75;;;;;;;;;;4973445;28;20042;-80
2023/05/29 13:37:10;;;;;;;7.00;2.40;;;;;;;;;;4973390;28;20026;-79
2023/05/29 13:39:36;;;;;;;8.32;2.47;;;;;;;;;;4973359;28;20066;-82
2023/05/29 13:42:02;;;;;;;8.90;2.58;;;;;;;;;;4973327;28;20468;-80
2023/05/29 13:44:28;;;;;;;8.63;2.30;;;;;;;;;;4973248;28;20130;-79
2023/05/29 13:46:55;;;;;;;9.90;2.45;;;;;;;;;;4973204;28;20109;-80
2023/05/29 13:49:21;;;;;;;7.15;2.10;;;;;;;;;;4973266;28;20085;-80
2023/05/29 13:51:47;;;;;;;6.53;2.17;;;;;;;;;;4973240;28;20031;-80
2023/05/29 13:54:13;;;;;;;8.40;2.72;;;;;;;;;;4973204;28;20026;-80
2023/05/29 13:56:39;;;;;;;8.77;2.85;;;;;;;;;;4973193;28;20038;-80
2023/05/29 13:59:06;;;;;;;5.75;2.05;;;;;;;;;;4973151;28;20037;-80
2023/05/29 14:01:33;;;;;;;9.32;2.80;;;;;;;;;;4972917;28;20101;-80
2023/05/29 14:03:59;;;;;;;8.30;2.42;;;;;;;;;;4972943;28;20062;-80
2023/05/29 14:06:25;;;;;;;11.27;2.50;;;;;;;;;;4973169;28;20031;-78
2023/05/29 14:08:51;;;;;;;8.02;2.80;;;;;;;;;;4973225;28;20039;-80
2023/05/29 14:11:17;;;;;;;8.60;2.50;;;;;;;;;;4973060;28;20056;-79
2023/05/29 14:13:43;;;;;;;8.90;2.28;;;;;;;;;;4973072;28;20037;-79
2023/05/29 14:16:09;;;;;;;8.13;2.47;;;;;;;;;;4972978;28;20378;-79
2023/05/29 14:18:35;;;;;;;8.43;2.50;;;;;;;;;;4972903;28;20110;-79
2023/05/29 14:21:01;;;;;;;10.48;2.38;;;;;;;;;;4975864;28;20039;-77